^^
Datos históricos de la estación: Murcia-Puente Tocinos
Diario Informe para Noviembre 16, 2019 Unidades:  Ambas    Ingés   Métrico
Diario Semanal Mensual Anual
  Máxima: Mínima: Promedio:
Temperatura: 59.7 °F /  15.4 °C 46.9 °F /  8.3 °C 52.7 °F /  11.5 °C
Punto de rocio: 34.7 °F /  1.5 °C 27 °F /  -2.8 °C 32.4 °F /  0.2 °C
Humedad: 61% 30% 47%
Velocidad viento: 14.7mph /  23.7km/h - 7.1mph /  11.5km/h
Racha viento: 29mph /  46.7km/h - -
Viento- - OSO
Presión: 30 in /  1015.3 hPa 29.7 in /  1006.5 hPa -
Precipitación: 0 in /  0.0 mm    
 
 
Tabla de datos para Noviembre 16, 2019
Hora Temperatura Punto de rocio Presión Viento Velocidad viento Racha viento Humedad Intensidad lluvia(por hora) Nubes
00:04 46.9 °F /  8.3 °C 33.8 °F /  1 °C 29.7in /  1006.7hPa Oeste 2.6mph /  4.2km/h 5.8mph /  9.3km/h 60% 0in /  0.0mm
00:09 47.1 °F /  8.4 °C 33.6 °F /  0.9 °C 29.7in /  1006.9hPa Oeste 2.9mph /  4.7km/h 6mph /  9.7km/h 59.5% 0in /  0.0mm
00:14 47.1 °F /  8.4 °C 33.6 °F /  0.9 °C 29.7in /  1006.9hPa ONO 3mph /  4.9km/h 6.2mph /  10km/h 59% 0in /  0.0mm
00:19 47.5 °F /  8.6 °C 33.4 °F /  0.8 °C 29.7in /  1006.9hPa Oeste 3.1mph /  5km/h 5.2mph /  8.4km/h 58.3% 0in /  0.0mm
00:24 47.5 °F /  8.6 °C 33.4 °F /  0.8 °C 29.7in /  1006.9hPa OSO 3.1mph /  5km/h 5mph /  8km/h 57.8% 0in /  0.0mm
00:29 47.7 °F /  8.7 °C 33.3 °F /  0.7 °C 29.7in /  1006.9hPa Oeste 3.1mph /  5km/h 5.2mph /  8.4km/h 57% 0in /  0.0mm
00:34 47.8 °F /  8.8 °C 33.4 °F /  0.8 °C 29.7in /  1006.9hPa ONO 2.7mph /  4.3km/h 5.9mph /  9.5km/h 57.3% 0in /  0.0mm
00:39 47.8 °F /  8.8 °C 33.4 °F /  0.8 °C 29.7in /  1006.9hPa Oeste 2.4mph /  3.9km/h 6mph /  9.7km/h 57% 0in /  0.0mm
00:44 48 °F /  8.9 °C 33.4 °F /  0.8 °C 29.7in /  1006.9hPa Oeste 3.2mph /  5.1km/h 6.9mph /  11.1km/h 56.9% 0in /  0.0mm
00:49 47.8 °F /  8.8 °C 33.4 °F /  0.8 °C 29.7in /  1006.9hPa Oeste 3.6mph /  5.8km/h 7mph /  11.3km/h 57% 0in /  0.0mm
00:54 47.8 °F /  8.8 °C 33.8 °F /  1 °C 29.7in /  1006.9hPa Oeste 3.6mph /  5.8km/h 6mph /  9.7km/h 57.9% 0in /  0.0mm
00:59 47.8 °F /  8.8 °C 33.8 °F /  1 °C 29.7in /  1006.9hPa Oeste 3.6mph /  5.8km/h 6mph /  9.7km/h 58% 0in /  0.0mm
01:04 47.8 °F /  8.8 °C 34 °F /  1.1 °C 29.7in /  1006.9hPa ONO 2.8mph /  4.5km/h 5.4mph /  8.7km/h 58.8% 0in /  0.0mm
01:09 47.8 °F /  8.8 °C 34.2 °F /  1.2 °C 29.7in /  1006.9hPa ONO 2.4mph /  3.9km/h 6mph /  9.7km/h 59% 0in /  0.0mm
01:14 47.7 °F /  8.7 °C 34.2 °F /  1.2 °C 29.7in /  1006.9hPa Oeste 3.2mph /  5.1km/h 6mph /  9.7km/h 59% 0in /  0.0mm
01:19 47.8 °F /  8.8 °C 34.3 °F /  1.3 °C 29.7in /  1006.9hPa Oeste 3.6mph /  5.8km/h 6mph /  9.7km/h 59.5% 0in /  0.0mm
01:24 47.8 °F /  8.8 °C 34.5 °F /  1.4 °C 29.7in /  1006.9hPa Oeste 3.2mph /  5.1km/h 6mph /  9.7km/h 60% 0in /  0.0mm
01:29 47.8 °F /  8.8 °C 34.5 °F /  1.4 °C 29.7in /  1006.7hPa Oeste 2.9mph /  4.7km/h 5mph /  8km/h 60% 0in /  0.0mm
01:34 47.7 °F /  8.7 °C 34.3 °F /  1.3 °C 29.7in /  1006.7hPa ONO 2.9mph /  4.7km/h 5.2mph /  8.4km/h 60% 0in /  0.0mm
01:39 47.7 °F /  8.7 °C 34.3 °F /  1.3 °C 29.7in /  1006.7hPa ONO 2.9mph /  4.7km/h 5.2mph /  8.4km/h 60% 0in /  0.0mm
01:44 47.7 °F /  8.7 °C 34.5 °F /  1.4 °C 29.7in /  1006.7hPa ONO 3mph /  4.9km/h 5.8mph /  9.3km/h 60% 0in /  0.0mm
01:49 47.8 °F /  8.8 °C 34.5 °F /  1.4 °C 29.7in /  1006.7hPa ONO 3.1mph /  5km/h 6mph /  9.7km/h 60% 0in /  0.0mm
01:54 47.8 °F /  8.8 °C 34.3 °F /  1.3 °C 29.7in /  1006.7hPa ONO 3.1mph /  5km/h 6mph /  9.7km/h 59.6% 0in /  0.0mm
01:59 47.8 °F /  8.8 °C 34.2 °F /  1.2 °C 29.7in /  1006.5hPa ONO 3.1mph /  5km/h 5mph /  8km/h 59% 0in /  0.0mm
02:04 47.8 °F /  8.8 °C 34.3 °F /  1.3 °C 29.7in /  1006.5hPa ONO 2.6mph /  4.2km/h 5mph /  8km/h 59% 0in /  0.0mm
02:09 48 °F /  8.9 °C 34 °F /  1.1 °C 29.7in /  1006.5hPa ONO 2.4mph /  3.9km/h 5mph /  8km/h 58.1% 0in /  0.0mm
02:14 48.6 °F /  9.2 °C 34 °F /  1.1 °C 29.7in /  1006.5hPa Sur 2.4mph /  3.9km/h 5.4mph /  8.7km/h 57.1% 0in /  0.0mm
02:19 48.7 °F /  9.3 °C 34.2 °F /  1.2 °C 29.7in /  1006.5hPa NO 2.4mph /  3.9km/h 6mph /  9.7km/h 57.2% 0in /  0.0mm
02:24 48.7 °F /  9.3 °C 34.3 °F /  1.3 °C 29.7in /  1006.5hPa ONO 2.1mph /  3.4km/h 6mph /  9.7km/h 57.2% 0in /  0.0mm
02:29 48.6 °F /  9.2 °C 34.5 °F /  1.4 °C 29.7in /  1006.5hPa ESE 2mph /  3.2km/h 5.8mph /  9.3km/h 58% 0in /  0.0mm
02:34 48.2 °F /  9 °C 34.2 °F /  1.2 °C 29.7in /  1006.5hPa ESE 2.6mph /  4.2km/h 6mph /  9.7km/h 58.2% 0in /  0.0mm
02:39 47.7 °F /  8.7 °C 34 °F /  1.1 °C 29.7in /  1006.8hPa Este 2.9mph /  4.7km/h 5mph /  8km/h 59% 0in /  0.0mm
02:44 47.3 °F /  8.5 °C 34 °F /  1.1 °C 29.7in /  1006.8hPa ESE 2.9mph /  4.7km/h 5mph /  8km/h 59.7% 0in /  0.0mm
02:49 46.9 °F /  8.3 °C 34.2 °F /  1.2 °C 29.7in /  1006.8hPa SE 2.9mph /  4.7km/h 5mph /  8km/h 60.6% 0in /  0.0mm
02:54 46.9 °F /  8.3 °C 33.8 °F /  1 °C 29.7in /  1006.8hPa Sur 2.9mph /  4.7km/h 5mph /  8km/h 60% 0in /  0.0mm
02:59 46.9 °F /  8.3 °C 33.6 °F /  0.9 °C 29.7in /  1006.8hPa SSE 2.9mph /  4.7km/h 5.9mph /  9.5km/h 59.5% 0in /  0.0mm
03:04 46.9 °F /  8.3 °C 33.8 °F /  1 °C 29.7in /  1006.8hPa SSO 3mph /  4.9km/h 6mph /  9.7km/h 60% 0in /  0.0mm
03:09 46.9 °F /  8.3 °C 33.8 °F /  1 °C 29.7in /  1006.9hPa SSO 3.1mph /  5km/h 5mph /  8km/h 60% 0in /  0.0mm
03:14 46.9 °F /  8.3 °C 33.8 °F /  1 °C 29.7in /  1006.9hPa SSO 2.7mph /  4.3km/h 5.2mph /  8.4km/h 60% 0in /  0.0mm
03:19 47.3 °F /  8.5 °C 33.8 °F /  1 °C 29.7in /  1006.9hPa SSO 2.4mph /  3.9km/h 5.9mph /  9.5km/h 59.2% 0in /  0.0mm
03:24 47.7 °F /  8.7 °C 33.6 °F /  0.9 °C 29.7in /  1007.0hPa SSO 3.4mph /  5.5km/h 6.9mph /  11.1km/h 58.1% 0in /  0.0mm
03:29 47.8 °F /  8.8 °C 33.6 °F /  0.9 °C 29.7in /  1007.0hPa SSO 4mph /  6.5km/h 7mph /  11.3km/h 57.6% 0in /  0.0mm
03:34 47.8 °F /  8.8 °C 33.8 °F /  1 °C 29.7in /  1007.0hPa SO 4mph /  6.5km/h 6mph /  9.7km/h 57.9% 0in /  0.0mm
03:39 47.7 °F /  8.7 °C 33.6 °F /  0.9 °C 29.7in /  1007.1hPa SSO 4mph /  6.5km/h 5.4mph /  8.7km/h 57.8% 0in /  0.0mm
03:44 47.7 °F /  8.7 °C 33.4 °F /  0.8 °C 29.7in /  1007.1hPa SSO 3.4mph /  5.5km/h 6.9mph /  11.1km/h 57.4% 0in /  0.0mm
03:49 47.7 °F /  8.7 °C 33.3 °F /  0.7 °C 29.7in /  1007.1hPa Sur 3.1mph /  5km/h 7mph /  11.3km/h 57.1% 0in /  0.0mm
03:54 47.8 °F /  8.8 °C 33.3 °F /  0.7 °C 29.7in /  1007.1hPa Sur 3.7mph /  5.9km/h 7.4mph /  11.9km/h 57% 0in /  0.0mm
03:59 47.8 °F /  8.8 °C 33.3 °F /  0.7 °C 29.7in /  1007.1hPa SSO 4mph /  6.5km/h 8.1mph /  13km/h 57% 0in /  0.0mm
04:04 47.8 °F /  8.8 °C 33.3 °F /  0.7 °C 29.7in /  1007.1hPa Sur 4.8mph /  7.8km/h 8mph /  12.9km/h 57% 0in /  0.0mm
04:09 47.8 °F /  8.8 °C 33.3 °F /  0.7 °C 29.7in /  1007.1hPa SSO 5.2mph /  8.4km/h 8.1mph /  13km/h 57% 0in /  0.0mm
04:14 48 °F /  8.9 °C 33.4 °F /  0.8 °C 29.7in /  1007.1hPa SSO 5.2mph /  8.4km/h 8mph /  12.9km/h 57% 0in /  0.0mm
04:19 48 °F /  8.9 °C 33.4 °F /  0.8 °C 29.7in /  1007.1hPa Sur 5.2mph /  8.4km/h 7mph /  11.3km/h 57% 0in /  0.0mm
04:24 48 °F /  8.9 °C 33.4 °F /  0.8 °C 29.7in /  1007.2hPa SSO 4.8mph /  7.8km/h 8.1mph /  13km/h 57% 0in /  0.0mm
04:29 48 °F /  8.9 °C 33.3 °F /  0.7 °C 29.7in /  1007.2hPa Sur 4.7mph /  7.6km/h 8.5mph /  13.7km/h 56.6% 0in /  0.0mm
04:34 48 °F /  8.9 °C 33.1 °F /  0.6 °C 29.7in /  1007.2hPa SSO 5.2mph /  8.3km/h 9mph /  14.5km/h 56% 0in /  0.0mm
04:39 48 °F /  8.9 °C 33.1 °F /  0.6 °C 29.8in /  1007.4hPa SSO 5.4mph /  8.7km/h 10.2mph /  16.4km/h 56% 0in /  0.0mm
04:44 48.2 °F /  9 °C 33.1 °F /  0.6 °C 29.8in /  1007.4hPa SSO 5.4mph /  8.7km/h 10.4mph /  16.7km/h 56% 0in /  0.0mm
04:49 48 °F /  8.9 °C 33.1 °F /  0.6 °C 29.8in /  1007.4hPa SSO 5.4mph /  8.7km/h 10mph /  16.1km/h 56% 0in /  0.0mm
04:54 48 °F /  8.9 °C 33.4 °F /  0.8 °C 29.8in /  1007.5hPa SSO 5.3mph /  8.5km/h 10mph /  16.1km/h 56.9% 0in /  0.0mm
04:59 47.8 °F /  8.8 °C 33.4 °F /  0.8 °C 29.8in /  1007.5hPa SSO 5.2mph /  8.4km/h 10.7mph /  17.2km/h 57.1% 0in /  0.0mm
05:04 47.8 °F /  8.8 °C 33.8 °F /  1 °C 29.8in /  1007.5hPa Sur 6.3mph /  10.2km/h 11mph /  17.7km/h 58% 0in /  0.0mm
05:09 47.7 °F /  8.7 °C 33.6 °F /  0.9 °C 29.8in /  1007.7hPa SSO 6.9mph /  11.1km/h 10mph /  16.1km/h 58% 0in /  0.0mm
05:14 47.7 °F /  8.7 °C 34 °F /  1.1 °C 29.8in /  1007.7hPa Sur 5.8mph /  9.3km/h 10.7mph /  17.2km/h 58.8% 0in /  0.0mm
05:19 47.7 °F /  8.7 °C 34 °F /  1.1 °C 29.8in /  1007.7hPa SSO 5.2mph /  8.4km/h 11mph /  17.7km/h 59% 0in /  0.0mm
05:24 47.8 °F /  8.8 °C 34.2 °F /  1.2 °C 29.8in /  1007.8hPa SSO 5.8mph /  9.4km/h 10mph /  16.1km/h 58.7% 0in /  0.0mm
05:29 48 °F /  8.9 °C 34 °F /  1.1 °C 29.8in /  1007.8hPa SSO 6.2mph /  10km/h 10mph /  16.1km/h 58% 0in /  0.0mm
05:34 48.2 °F /  9 °C 34.2 °F /  1.2 °C 29.8in /  1007.8hPa SO 5.6mph /  9km/h 10.4mph /  16.7km/h 58% 0in /  0.0mm
05:39 48.6 °F /  9.2 °C 34.3 °F /  1.3 °C 29.8in /  1007.9hPa SO 5.2mph /  8.4km/h 10mph /  16.1km/h 58% 0in /  0.0mm
05:44 48.6 °F /  9.2 °C 34.2 °F /  1.2 °C 29.8in /  1007.9hPa SSO 5.2mph /  8.4km/h 9.2mph /  14.8km/h 57.2% 0in /  0.0mm
05:49 48.7 °F /  9.3 °C 34.2 °F /  1.2 °C 29.8in /  1007.9hPa Sur 5.2mph /  8.4km/h 9mph /  14.5km/h 57% 0in /  0.0mm
05:54 48.7 °F /  9.3 °C 34.2 °F /  1.2 °C 29.8in /  1008.2hPa SSO 5.3mph /  8.6km/h 10.4mph /  16.7km/h 57% 0in /  0.0mm
05:59 48.7 °F /  9.3 °C 34.2 °F /  1.2 °C 29.8in /  1008.2hPa SSO 5.4mph /  8.7km/h 10mph /  16.1km/h 57% 0in /  0.0mm
06:04 48.7 °F /  9.3 °C 34.2 °F /  1.2 °C 29.8in /  1008.2hPa SSO 4.7mph /  7.5km/h 6.9mph /  11.1km/h 57% 0in /  0.0mm
06:09 48.6 °F /  9.2 °C 34.3 °F /  1.3 °C 29.8in /  1008.3hPa SSO 4.3mph /  6.9km/h 7.4mph /  11.9km/h 58% 0in /  0.0mm
06:14 48.4 °F /  9.1 °C 34.3 °F /  1.3 °C 29.8in /  1008.3hPa Sur 4.6mph /  7.4km/h 8.1mph /  13km/h 58% 0in /  0.0mm
06:19 48.2 °F /  9 °C 34.2 °F /  1.2 °C 29.8in /  1008.3hPa SSO 4.7mph /  7.6km/h 8.1mph /  13km/h 58.1% 0in /  0.0mm
06:24 48 °F /  8.9 °C 34.3 °F /  1.3 °C 29.8in /  1008.4hPa SSO 5mph /  8.1km/h 9.2mph /  14.8km/h 59% 0in /  0.0mm
06:29 48 °F /  8.9 °C 34.3 °F /  1.3 °C 29.8in /  1008.4hPa SSO 5.2mph /  8.4km/h 9mph /  14.5km/h 59% 0in /  0.0mm
06:34 47.8 °F /  8.8 °C 34.2 °F /  1.2 °C 29.8in /  1008.4hPa SSO 5.2mph /  8.4km/h 8mph /  12.9km/h 59% 0in /  0.0mm
06:39 47.8 °F /  8.8 °C 34.2 °F /  1.2 °C 29.8in /  1008.7hPa Sur 5.2mph /  8.4km/h 8.1mph /  13km/h 59% 0in /  0.0mm
06:44 47.7 °F /  8.7 °C 34.2 °F /  1.2 °C 29.8in /  1008.7hPa Sur 4.8mph /  7.8km/h 8.1mph /  13km/h 59.4% 0in /  0.0mm
06:49 47.5 °F /  8.6 °C 34.3 °F /  1.3 °C 29.8in /  1008.7hPa Sur 4.7mph /  7.6km/h 8.5mph /  13.7km/h 60% 0in /  0.0mm
06:54 47.3 °F /  8.5 °C 34.2 °F /  1.2 °C 29.8in /  1009.0hPa Sur 5mph /  8.1km/h 10mph /  16.1km/h 60% 0in /  0.0mm
06:59 47.1 °F /  8.4 °C 34 °F /  1.1 °C 29.8in /  1009.0hPa SSE 5.2mph /  8.4km/h 10.4mph /  16.7km/h 60% 0in /  0.0mm
07:04 47.1 °F /  8.4 °C 34 °F /  1.1 °C 29.8in /  1009.0hPa Sur 5.8mph /  9.4km/h 9.2mph /  14.8km/h 60% 0in /  0.0mm
07:09 47.1 °F /  8.4 °C 34.3 °F /  1.3 °C 29.8in /  1009.1hPa SSE 6.2mph /  10km/h 9mph /  14.5km/h 61% 0in /  0.0mm
07:14 46.9 °F /  8.3 °C 34.2 °F /  1.2 °C 29.8in /  1009.1hPa Sur 5.5mph /  8.9km/h 8.1mph /  13km/h 61% 0in /  0.0mm
07:19 47.1 °F /  8.4 °C 34.3 °F /  1.3 °C 29.8in /  1009.1hPa Sur 5.2mph /  8.4km/h 8.1mph /  13km/h 61% 0in /  0.0mm
07:24 47.1 °F /  8.4 °C 34 °F /  1.1 °C 29.8in /  1009.4hPa Sur 4.6mph /  7.4km/h 8mph /  12.9km/h 60.1% 0in /  0.0mm
07:29 47.3 °F /  8.5 °C 34 °F /  1.1 °C 29.8in /  1009.4hPa Sur 4.3mph /  6.9km/h 7.4mph /  11.9km/h 60% 0in /  0.0mm
07:34 47.3 °F /  8.5 °C 34.2 °F /  1.2 °C 29.8in /  1009.4hPa Sur 4.6mph /  7.4km/h 8.1mph /  13km/h 60% 0in /  0.0mm
07:39 47.3 °F /  8.5 °C 34.2 °F /  1.2 °C 29.8in /  1009.5hPa Sur 4.7mph /  7.6km/h 8mph /  12.9km/h 60% 0in /  0.0mm
07:44 47.3 °F /  8.5 °C 34.2 °F /  1.2 °C 29.8in /  1009.5hPa Sur 4.2mph /  6.8km/h 6.2mph /  10km/h 60% 0in /  0.0mm
07:49 47.5 °F /  8.6 °C 34.2 °F /  1.2 °C 29.8in /  1009.5hPa Sur 4mph /  6.5km/h 8.7mph /  14km/h 60% 0in /  0.0mm
07:54 47.7 °F /  8.7 °C 34.3 °F /  1.3 °C 29.8in /  1009.7hPa SSO 4.5mph /  7.2km/h 10mph /  16.1km/h 60% 0in /  0.0mm
07:59 47.7 °F /  8.7 °C 34.3 °F /  1.3 °C 29.8in /  1009.7hPa SSO 4.7mph /  7.6km/h 10.4mph /  16.7km/h 60% 0in /  0.0mm
08:04 47.7 °F /  8.7 °C 34.2 °F /  1.2 °C 29.8in /  1009.7hPa SSO 5.5mph /  8.9km/h 10mph /  16.1km/h 59.2% 0in /  0.0mm
08:09 47.8 °F /  8.8 °C 34.2 °F /  1.2 °C 29.8in /  1010.0hPa SSO 5.9mph /  9.5km/h 8.1mph /  13km/h 59% 0in /  0.0mm
08:14 47.8 °F /  8.8 °C 34.2 °F /  1.2 °C 29.8in /  1010.0hPa SSO 5.5mph /  8.8km/h 8.1mph /  13km/h 59% 0in /  0.0mm
08:19 47.8 °F /  8.8 °C 34.3 °F /  1.3 °C 29.8in /  1010.0hPa SSO 5.2mph /  8.4km/h 7.6mph /  12.2km/h 59% 0in /  0.0mm
08:24 48 °F /  8.9 °C 34.3 °F /  1.3 °C 29.8in /  1010.3hPa SO 4.6mph /  7.4km/h 8.1mph /  13km/h 58.9% 0in /  0.0mm
08:29 48 °F /  8.9 °C 34 °F /  1.1 °C 29.8in /  1010.3hPa SO 4.3mph /  6.9km/h 7mph /  11.3km/h 58% 0in /  0.0mm
08:34 48.4 °F /  9.1 °C 34.2 °F /  1.2 °C 29.8in /  1010.3hPa SO 4.3mph /  6.9km/h 6.2mph /  10km/h 58% 0in /  0.0mm
08:39 48.4 °F /  9.1 °C 34.3 °F /  1.3 °C 29.8in /  1010.5hPa SO 4.3mph /  6.9km/h 8.1mph /  13km/h 58% 0in /  0.0mm
08:44 48.6 °F /  9.2 °C 34.3 °F /  1.3 °C 29.8in /  1010.5hPa OSO 4.3mph /  6.9km/h 8mph /  12.9km/h 58% 0in /  0.0mm
08:49 48.7 °F /  9.3 °C 34.3 °F /  1.3 °C 29.8in /  1010.5hPa Oeste 4.3mph /  6.9km/h 11.5mph /  18.5km/h 57.6% 0in /  0.0mm
08:54 48.9 °F /  9.4 °C 34.3 °F /  1.3 °C 29.9in /  1010.8hPa Oeste 4.3mph /  6.9km/h 12mph /  19.3km/h 57% 0in /  0.0mm
08:59 49.1 °F /  9.5 °C 34.2 °F /  1.2 °C 29.9in /  1010.8hPa Oeste 4.3mph /  6.9km/h 14.7mph /  23.7km/h 56.2% 0in /  0.0mm
09:04 49.3 °F /  9.6 °C 34.2 °F /  1.2 °C 29.9in /  1010.8hPa Oeste 6.4mph /  10.3km/h 15mph /  24.1km/h 56% 0in /  0.0mm
09:09 49.3 °F /  9.6 °C 34.3 °F /  1.3 °C 29.9in /  1011.1hPa Oeste 7.4mph /  11.9km/h 15mph /  24.1km/h 56.1% 0in /  0.0mm
09:14 49.3 °F /  9.6 °C 34.5 °F /  1.4 °C 29.9in /  1011.1hPa Oeste 6.5mph /  10.4km/h 10.4mph /  16.7km/h 56.5% 0in /  0.0mm
09:19 49.5 °F /  9.7 °C 34.7 °F /  1.5 °C 29.9in /  1011.1hPa SO 5.9mph /  9.5km/h 10mph /  16.1km/h 57% 0in /  0.0mm
09:24 49.6 °F /  9.8 °C 34.5 °F /  1.4 °C 29.9in /  1011.3hPa OSO 4.4mph /  7.1km/h 6mph /  9.7km/h 56.1% 0in /  0.0mm
09:29 49.8 °F /  9.9 °C 34.7 °F /  1.5 °C 29.9in /  1011.3hPa Oeste 3.6mph /  5.8km/h 5mph /  8km/h 56% 0in /  0.0mm
09:34 50.4 °F /  10.2 °C 34.7 °F /  1.5 °C 29.9in /  1011.3hPa SO 2.8mph /  4.5km/h 9.7mph /  15.6km/h 54.7% 0in /  0.0mm
09:39 50.5 °F /  10.3 °C 34.5 °F /  1.4 °C 29.9in /  1011.6hPa ONO 2.4mph /  3.9km/h 11.8mph /  19km/h 54% 0in /  0.0mm
09:44 50.4 °F /  10.2 °C 34.5 °F /  1.4 °C 29.9in /  1011.6hPa Oeste 4.7mph /  7.5km/h 12mph /  19.3km/h 54.1% 0in /  0.0mm
09:49 50.5 °F /  10.3 °C 34.5 °F /  1.4 °C 29.9in /  1011.6hPa Oeste 5.9mph /  9.5km/h 15.6mph /  25.1km/h 54% 0in /  0.0mm
09:54 50.5 °F /  10.3 °C 34.3 °F /  1.3 °C 29.9in /  1011.9hPa OSO 7mph /  11.3km/h 18.4mph /  29.6km/h 53.5% 0in /  0.0mm
09:59 50.7 °F /  10.4 °C 34.2 °F /  1.2 °C 29.9in /  1011.9hPa Oeste 7.6mph /  12.2km/h 18.5mph /  29.8km/h 53.1% 0in /  0.0mm
10:04 50.7 °F /  10.4 °C 34.3 °F /  1.3 °C 29.9in /  1011.9hPa Oeste 9.1mph /  14.6km/h 19mph /  30.6km/h 53% 0in /  0.0mm
10:09 50.9 °F /  10.5 °C 34.3 °F /  1.3 °C 29.9in /  1011.9hPa Oeste 9.7mph /  15.6km/h 18mph /  29km/h 53% 0in /  0.0mm
10:14 51.3 °F /  10.7 °C 34.5 °F /  1.4 °C 29.9in /  1011.9hPa Oeste 9.1mph /  14.6km/h 21.3mph /  34.3km/h 52.7% 0in /  0.0mm
10:19 51.4 °F /  10.8 °C 34.3 °F /  1.3 °C 29.9in /  1011.9hPa Oeste 8.7mph /  14km/h 21mph /  33.8km/h 52% 0in /  0.0mm
10:24 51.4 °F /  10.8 °C 34.5 °F /  1.4 °C 29.9in /  1011.9hPa Oeste 10mph /  16.1km/h 20.8mph /  33.5km/h 52% 0in /  0.0mm
10:29 51.6 °F /  10.9 °C 34.2 °F /  1.2 °C 29.9in /  1011.5hPa Oeste 10.7mph /  17.2km/h 21mph /  33.8km/h 51.2% 0in /  0.0mm
10:34 51.8 °F /  11 °C 34.3 °F /  1.3 °C 29.9in /  1011.5hPa Oeste 11mph /  17.7km/h 20.7mph /  33.3km/h 51.1% 0in /  0.0mm
10:39 52.2 °F /  11.2 °C 34.3 °F /  1.3 °C 29.9in /  1011.8hPa Oeste 11.2mph /  18km/h 21mph /  33.8km/h 50.7% 0in /  0.0mm
10:44 52.2 °F /  11.2 °C 34.2 °F /  1.2 °C 29.9in /  1011.8hPa Oeste 10.4mph /  16.8km/h 20.8mph /  33.5km/h 50% 0in /  0.0mm
10:49 52.3 °F /  11.3 °C 34 °F /  1.1 °C 29.9in /  1011.8hPa ONO 10mph /  16.1km/h 21.9mph /  35.2km/h 49.5% 0in /  0.0mm
10:54 52.5 °F /  11.4 °C 34 °F /  1.1 °C 29.9in /  1011.8hPa ONO 11.9mph /  19.2km/h 22mph /  35.4km/h 49.2% 0in /  0.0mm
10:59 52.7 °F /  11.5 °C 34.2 °F /  1.2 °C 29.9in /  1011.8hPa ONO 13mph /  20.9km/h 24.6mph /  39.6km/h 49.2% 0in /  0.0mm
11:04 52.9 °F /  11.6 °C 34.2 °F /  1.2 °C 29.9in /  1011.8hPa Oeste 11.9mph /  19.2km/h 25mph /  40.2km/h 49% 0in /  0.0mm
11:09 53.1 °F /  11.7 °C 34.2 °F /  1.2 °C 29.9in /  1011.9hPa Oeste 11.4mph /  18.4km/h 22.3mph /  35.9km/h 48.7% 0in /  0.0mm
11:14 53.2 °F /  11.8 °C 34 °F /  1.1 °C 29.9in /  1011.9hPa Oeste 12mph /  19.3km/h 22mph /  35.4km/h 48% 0in /  0.0mm
11:19 53.4 °F /  11.9 °C 34.2 °F /  1.2 °C 29.9in /  1011.9hPa Oeste 12.3mph /  19.8km/h 22mph /  35.4km/h 48% 0in /  0.0mm
11:24 53.6 °F /  12 °C 34.3 °F /  1.3 °C 29.9in /  1011.9hPa Oeste 12.7mph /  20.5km/h 22mph /  35.4km/h 48% 0in /  0.0mm
11:29 54 °F /  12.2 °C 34.5 °F /  1.4 °C 29.9in /  1011.9hPa Oeste 13mph /  20.9km/h 18.5mph /  29.8km/h 47.6% 0in /  0.0mm
11:34 54.1 °F /  12.3 °C 34 °F /  1.1 °C 29.9in /  1011.9hPa ONO 11.5mph /  18.5km/h 23.5mph /  37.8km/h 46.5% 0in /  0.0mm
11:39 54.1 °F /  12.3 °C 34.2 °F /  1.2 °C 29.9in /  1012.1hPa ONO 10.7mph /  17.2km/h 23mph /  37km/h 46.6% 0in /  0.0mm
11:44 54.5 °F /  12.5 °C 34.7 °F /  1.5 °C 29.9in /  1012.1hPa Oeste 10.3mph /  16.5km/h 19mph /  30.6km/h 47% 0in /  0.0mm
11:49 54.9 °F /  12.7 °C 34.7 °F /  1.5 °C 29.9in /  1012.1hPa ONO 10mph /  16.1km/h 15mph /  24.1km/h 46.5% 0in /  0.0mm
11:54 55.2 °F /  12.9 °C 34.5 °F /  1.4 °C 29.9in /  1012.1hPa Oeste 8.8mph /  14.1km/h 24.6mph /  39.6km/h 45.6% 0in /  0.0mm
11:59 55.2 °F /  12.9 °C 34.2 °F /  1.2 °C 29.9in /  1011.9hPa OSO 8.1mph /  13km/h 25mph /  40.2km/h 44.8% 0in /  0.0mm
12:04 55.2 °F /  12.9 °C 33.8 °F /  1 °C 29.9in /  1011.9hPa Oeste 10.6mph /  17km/h 20.7mph /  33.3km/h 44.2% 0in /  0.0mm
12:09 55.6 °F /  13.1 °C 33.8 °F /  1 °C 29.9in /  1011.9hPa Oeste 11.8mph /  19km/h 24.2mph /  38.9km/h 43.7% 0in /  0.0mm
12:14 55.6 °F /  13.1 °C 34 °F /  1.1 °C 29.9in /  1011.8hPa ONO 11.4mph /  18.4km/h 24mph /  38.6km/h 43.9% 0in /  0.0mm
12:19 55.9 °F /  13.3 °C 34.2 °F /  1.2 °C 29.9in /  1011.8hPa Oeste 11.2mph /  18km/h 17.3mph /  27.8km/h 43.5% 0in /  0.0mm
12:24 56.1 °F /  13.4 °C 33.8 °F /  1 °C 29.9in /  1011.8hPa ONO 10.3mph /  16.5km/h 20.7mph /  33.3km/h 42.8% 0in /  0.0mm
12:29 56.1 °F /  13.4 °C 33.6 °F /  0.9 °C 29.9in /  1011.7hPa Oeste 9.7mph /  15.6km/h 23mph /  37km/h 42.7% 0in /  0.0mm
12:34 56.1 °F /  13.4 °C 33.3 °F /  0.7 °C 29.9in /  1011.7hPa ONO 11.5mph /  18.5km/h 25.3mph /  40.7km/h 41.8% 0in /  0.0mm
12:39 56.1 °F /  13.4 °C 33.4 °F /  0.8 °C 29.9in /  1011.7hPa ONO 12.5mph /  20.1km/h 25mph /  40.2km/h 42% 0in /  0.0mm
12:44 56.5 °F /  13.6 °C 33.4 °F /  0.8 °C 29.9in /  1011.5hPa Oeste 11.8mph /  19km/h 20.4mph /  32.8km/h 41.6% 0in /  0.0mm
12:49 56.7 °F /  13.7 °C 33.3 °F /  0.7 °C 29.9in /  1011.5hPa OSO 11.4mph /  18.4km/h 22.5mph /  36.2km/h 41.1% 0in /  0.0mm
12:54 56.7 °F /  13.7 °C 33.3 °F /  0.7 °C 29.9in /  1011.5hPa Oeste 11.7mph /  18.8km/h 23.5mph /  37.8km/h 41% 0in /  0.0mm
12:59 56.7 °F /  13.7 °C 33.3 °F /  0.7 °C 29.9in /  1011.2hPa Oeste 11.8mph /  19km/h 24.2mph /  38.9km/h 41% 0in /  0.0mm
13:04 56.7 °F /  13.7 °C 33.3 °F /  0.7 °C 29.9in /  1011.2hPa Oeste 12.3mph /  19.8km/h 24mph /  38.6km/h 41% 0in /  0.0mm
13:09 57 °F /  13.9 °C 33.3 °F /  0.7 °C 29.9in /  1011.2hPa ONO 12.5mph /  20.1km/h 23.5mph /  37.8km/h 40.6% 0in /  0.0mm
13:14 56.8 °F /  13.8 °C 33.3 °F /  0.7 °C 29.9in /  1011.2hPa ONO 12.5mph /  20.1km/h 24.2mph /  38.9km/h 40.7% 0in /  0.0mm
13:19 56.8 °F /  13.8 °C 33.1 °F /  0.6 °C 29.9in /  1011.2hPa Oeste 12.5mph /  20.1km/h 24.2mph /  38.9km/h 40.6% 0in /  0.0mm
13:24 56.8 °F /  13.8 °C 33.1 °F /  0.6 °C 29.9in /  1011.2hPa Oeste 13.2mph /  21.2km/h 24mph /  38.6km/h 40.4% 0in /  0.0mm
13:29 57.2 °F /  14 °C 33.1 °F /  0.6 °C 29.9in /  1011.2hPa ONO 13.5mph /  21.7km/h 26.5mph /  42.6km/h 40% 0in /  0.0mm
13:34 57.4 °F /  14.1 °C 33.3 °F /  0.7 °C 29.9in /  1011.2hPa Oeste 13.9mph /  22.3km/h 26mph /  41.8km/h 40% 0in /  0.0mm
13:39 57.7 °F /  14.3 °C 33.4 °F /  0.8 °C 29.9in /  1011.2hPa ONO 14mph /  22.5km/h 23mph /  37km/h 39.6% 0in /  0.0mm
13:44 57.7 °F /  14.3 °C 32.9 °F /  0.5 °C 29.9in /  1011.0hPa ONO 12.3mph /  19.8km/h 23.5mph /  37.8km/h 38.9% 0in /  0.0mm
13:49 57.7 °F /  14.3 °C 32.9 °F /  0.5 °C 29.9in /  1011.0hPa Oeste 11.4mph /  18.4km/h 23mph /  37km/h 39% 0in /  0.0mm
13:54 57.9 °F /  14.4 °C 32.5 °F /  0.3 °C 29.9in /  1011.1hPa ONO 12.4mph /  20km/h 25.6mph /  41.2km/h 38.1% 0in /  0.0mm
13:59 57.9 °F /  14.4 °C 32.5 °F /  0.3 °C 29.9in /  1011.1hPa Oeste 13mph /  20.9km/h 26mph /  41.8km/h 38.2% 0in /  0.0mm
14:04 57.9 °F /  14.4 °C 32.4 °F /  0.2 °C 29.9in /  1011.1hPa ONO 13.4mph /  21.5km/h 22mph /  35.4km/h 38% 0in /  0.0mm
14:09 58.3 °F /  14.6 °C 32.7 °F /  0.4 °C 29.9in /  1011.2hPa Oeste 13.5mph /  21.7km/h 20mph /  32.2km/h 37.8% 0in /  0.0mm
14:14 58.6 °F /  14.8 °C 32.4 °F /  0.2 °C 29.9in /  1011.2hPa Oeste 11.4mph /  18.3km/h 27.6mph /  44.4km/h 37.1% 0in /  0.0mm
14:19 58.5 °F /  14.7 °C 32.4 °F /  0.2 °C 29.9in /  1011.2hPa ONO 10.2mph /  16.4km/h 28mph /  45.1km/h 36.9% 0in /  0.0mm
14:24 58.6 °F /  14.8 °C 32.4 °F /  0.2 °C 29.9in /  1011.2hPa ONO 11.2mph /  18.1km/h 25.6mph /  41.2km/h 37% 0in /  0.0mm
14:29 58.5 °F /  14.7 °C 32.4 °F /  0.2 °C 29.9in /  1011.1hPa ONO 11.8mph /  19km/h 27.6mph /  44.4km/h 37% 0in /  0.0mm
14:34 58.6 °F /  14.8 °C 32.4 °F /  0.2 °C 29.9in /  1011.1hPa ONO 12.6mph /  20.3km/h 28mph /  45.1km/h 36.9% 0in /  0.0mm
14:39 58.6 °F /  14.8 °C 32.2 °F /  0.1 °C 29.9in /  1011.1hPa Oeste 13mph /  20.9km/h 23mph /  37km/h 36.6% 0in /  0.0mm
14:44 59 °F /  15 °C 32.5 °F /  0.3 °C 29.9in /  1011.1hPa Oeste 11.5mph /  18.5km/h 23mph /  37km/h 36.7% 0in /  0.0mm
14:49 59.2 °F /  15.1 °C 32.2 °F /  0.1 °C 29.9in /  1011.1hPa ONO 10.7mph /  17.2km/h 21mph /  33.8km/h 36% 0in /  0.0mm
14:54 59 °F /  15 °C 32.2 °F /  0.1 °C 29.9in /  1011.1hPa ONO 12.6mph /  20.3km/h 28.8mph /  46.3km/h 36% 0in /  0.0mm
14:59 58.8 °F /  14.9 °C 32 °F /  0 °C 29.9in /  1011.1hPa ONO 13.7mph /  22.1km/h 29mph /  46.7km/h 36% 0in /  0.0mm
15:04 59.2 °F /  15.1 °C 32.2 °F /  0.1 °C 29.9in /  1011.1hPa ONO 13.5mph /  21.8km/h 23.5mph /  37.8km/h 36% 0in /  0.0mm
15:09 59.2 °F /  15.1 °C 31.5 °F /  -0.3 °C 29.9in /  1011.1hPa ONO 13.5mph /  21.7km/h 26.5mph /  42.6km/h 35% 0in /  0.0mm
15:14 59.4 °F /  15.2 °C 31.6 °F /  -0.2 °C 29.9in /  1010.9hPa ONO 14.3mph /  23km/h 26mph /  41.8km/h 34.9% 0in /  0.0mm
15:19 59.4 °F /  15.2 °C 31.3 °F /  -0.4 °C 29.9in /  1010.9hPa ONO 14.7mph /  23.7km/h 25mph /  40.2km/h 34.4% 0in /  0.0mm
15:24 59.4 °F /  15.2 °C 31.5 °F /  -0.3 °C 29.9in /  1011.1hPa ONO 14.6mph /  23.5km/h 23mph /  37km/h 34.7% 0in /  0.0mm
15:29 59.5 °F /  15.3 °C 30.7 °F /  -0.7 °C 29.9in /  1011.1hPa ONO 14.5mph /  23.3km/h 23.7mph /  38.1km/h 33.7% 0in /  0.0mm
15:34 59.4 °F /  15.2 °C 29.8 °F /  -1.2 °C 29.9in /  1011.1hPa ONO 13.9mph /  22.3km/h 27.9mph /  44.9km/h 32.3% 0in /  0.0mm
15:39 59.5 °F /  15.3 °C 29.7 °F /  -1.3 °C 29.9in /  1011.2hPa ONO 13.5mph /  21.7km/h 28mph /  45.1km/h 32% 0in /  0.0mm
15:44 59.5 °F /  15.3 °C 29.7 °F /  -1.3 °C 29.9in /  1011.2hPa ONO 14.3mph /  23km/h 24.2mph /  38.9km/h 32% 0in /  0.0mm
15:49 59.7 °F /  15.4 °C 29.3 °F /  -1.5 °C 29.9in /  1011.2hPa ONO 14.7mph /  23.7km/h 24mph /  38.6km/h 31.3% 0in /  0.0mm
15:54 59.7 °F /  15.4 °C 28.9 °F /  -1.7 °C 29.9in /  1011.4hPa ONO 13.9mph /  22.4km/h 23mph /  37km/h 31% 0in /  0.0mm
15:59 59.7 °F /  15.4 °C 28.6 °F /  -1.9 °C 29.9in /  1011.4hPa ONO 13.5mph /  21.7km/h 23.5mph /  37.8km/h 30.5% 0in /  0.0mm
16:04 59.5 °F /  15.3 °C 28 °F /  -2.2 °C 29.9in /  1011.4hPa ONO 13.7mph /  22km/h 25.3mph /  40.7km/h 30% 0in /  0.0mm
16:09 59.5 °F /  15.3 °C 28.6 °F /  -1.9 °C 29.9in /  1011.5hPa ONO 13.7mph /  22.1km/h 25mph /  40.2km/h 30.7% 0in /  0.0mm
16:14 59.5 °F /  15.3 °C 28.8 °F /  -1.8 °C 29.9in /  1011.5hPa ONO 12.9mph /  20.8km/h 24.2mph /  38.9km/h 31% 0in /  0.0mm
16:19 59.5 °F /  15.3 °C 28.9 °F /  -1.7 °C 29.9in /  1011.5hPa ONO 12.5mph /  20.1km/h 24mph /  38.6km/h 31% 0in /  0.0mm
16:24 59.7 °F /  15.4 °C 28.9 °F /  -1.7 °C 29.9in /  1011.5hPa ONO 11.8mph /  19km/h 19.2mph /  30.9km/h 31% 0in /  0.0mm
16:29 59.7 °F /  15.4 °C 28.9 °F /  -1.7 °C 29.9in /  1011.5hPa ONO 11.4mph /  18.4km/h 21.5mph /  34.6km/h 31% 0in /  0.0mm
16:34 59.5 °F /  15.3 °C 28.9 °F /  -1.7 °C 29.9in /  1011.5hPa ONO 11.4mph /  18.4km/h 22mph /  35.4km/h 31% 0in /  0.0mm
16:39 59.5 °F /  15.3 °C 28.8 °F /  -1.8 °C 29.9in /  1011.8hPa ONO 11.4mph /  18.4km/h 21.3mph /  34.3km/h 31% 0in /  0.0mm
16:44 59.5 °F /  15.3 °C 28.8 °F /  -1.8 °C 29.9in /  1011.8hPa ONO 11.2mph /  18.1km/h 21mph /  33.8km/h 31% 0in /  0.0mm
16:49 59.5 °F /  15.3 °C 28.6 °F /  -1.9 °C 29.9in /  1011.8hPa ONO 11.2mph /  18km/h 19.7mph /  31.7km/h 30.8% 0in /  0.0mm
16:54 59.5 °F /  15.3 °C 28.8 °F /  -1.8 °C 29.9in /  1011.9hPa ONO 11.6mph /  18.7km/h 20mph /  32.2km/h 31% 0in /  0.0mm
16:59 59.4 °F /  15.2 °C 28 °F /  -2.2 °C 29.9in /  1011.9hPa ONO 11.8mph /  19km/h 23mph /  37km/h 30.2% 0in /  0.0mm
17:04 59.4 °F /  15.2 °C 27.9 °F /  -2.3 °C 29.9in /  1011.9hPa ONO 11.8mph /  19km/h 23mph /  37km/h 30% 0in /  0.0mm
17:09 59.2 °F /  15.1 °C 27.9 °F /  -2.3 °C 29.9in /  1012.1hPa ONO 11.8mph /  19km/h 22mph /  35.4km/h 30.2% 0in /  0.0mm
17:14 59.2 °F /  15.1 °C 28.4 °F /  -2 °C 29.9in /  1012.1hPa ONO 11.1mph /  17.8km/h 17.3mph /  27.8km/h 30.8% 0in /  0.0mm
17:19 59.2 °F /  15.1 °C 28.4 °F /  -2 °C 29.9in /  1012.1hPa ONO 10.7mph /  17.2km/h 17.5mph /  28.2km/h 31% 0in /  0.0mm
17:24 59 °F /  15 °C 27.9 °F /  -2.3 °C 29.9in /  1012.3hPa ONO 10.4mph /  16.7km/h 19.6mph /  31.5km/h 30.4% 0in /  0.0mm
17:29 58.8 °F /  14.9 °C 27.3 °F /  -2.6 °C 29.9in /  1012.3hPa ONO 10.2mph /  16.4km/h 20mph /  32.2km/h 30% 0in /  0.0mm
17:34 58.6 °F /  14.8 °C 27.3 °F /  -2.6 °C 29.9in /  1012.3hPa ONO 10.2mph /  16.4km/h 16mph /  25.7km/h 30% 0in /  0.0mm
17:39 58.6 °F /  14.8 °C 27.1 °F /  -2.7 °C 29.9in /  1012.6hPa ONO 10.2mph /  16.4km/h 17.3mph /  27.8km/h 30% 0in /  0.0mm
17:44 58.5 °F /  14.7 °C 27.1 °F /  -2.7 °C 29.9in /  1012.6hPa ONO 9.6mph /  15.4km/h 17mph /  27.4km/h 30% 0in /  0.0mm
17:49 58.3 °F /  14.6 °C 27 °F /  -2.8 °C 29.9in /  1012.6hPa ONO 9.2mph /  14.8km/h 16mph /  25.7km/h 30% 0in /  0.0mm
17:54 58.1 °F /  14.5 °C 27.1 °F /  -2.7 °C 29.9in /  1012.9hPa ONO 8.5mph /  13.7km/h 13.5mph /  21.7km/h 30.3% 0in /  0.0mm
17:59 57.9 °F /  14.4 °C 27.3 °F /  -2.6 °C 29.9in /  1012.9hPa Oeste 8.1mph /  13km/h 15mph /  24.1km/h 31% 0in /  0.0mm
18:04 57.7 °F /  14.3 °C 27.3 °F /  -2.6 °C 29.9in /  1012.9hPa Oeste 7.3mph /  11.7km/h 15mph /  24.1km/h 31% 0in /  0.0mm
18:09 57.6 °F /  14.2 °C 27.5 °F /  -2.5 °C 29.9in /  1013.1hPa Oeste 6.9mph /  11.1km/h 13mph /  20.9km/h 31.5% 0in /  0.0mm
18:14 57.6 °F /  14.2 °C 27.9 °F /  -2.3 °C 29.9in /  1013.1hPa Oeste 6mph /  9.6km/h 13.8mph /  22.2km/h 32% 0in /  0.0mm
18:19 57.4 °F /  14.1 °C 27.7 °F /  -2.4 °C 29.9in /  1013.1hPa OSO 5.4mph /  8.7km/h 14mph /  22.5km/h 32% 0in /  0.0mm
18:24 57 °F /  13.9 °C 28 °F /  -2.2 °C 29.9in /  1013.2hPa Oeste 5.4mph /  8.7km/h 13.8mph /  22.2km/h 32.7% 0in /  0.0mm
18:29 56.8 °F /  13.8 °C 28.2 °F /  -2.1 °C 29.9in /  1013.2hPa ONO 5.4mph /  8.7km/h 14mph /  22.5km/h 33.2% 0in /  0.0mm
18:34 56.7 °F /  13.7 °C 28.8 °F /  -1.8 °C 29.9in /  1013.2hPa ONO 5.9mph /  9.5km/h 15mph /  24.1km/h 34.2% 0in /  0.0mm
18:39 56.8 °F /  13.8 °C 29.3 °F /  -1.5 °C 29.9in /  1013.3hPa ONO 6.2mph /  10km/h 18.5mph /  29.8km/h 35% 0in /  0.0mm
18:44 57 °F /  13.9 °C 29.7 °F /  -1.3 °C 29.9in /  1013.3hPa ONO 9.1mph /  14.7km/h 19mph /  30.6km/h 35% 0in /  0.0mm
18:49 57 °F /  13.9 °C 29.7 °F /  -1.3 °C 29.9in /  1013.3hPa Oeste 10.7mph /  17.2km/h 18mph /  29km/h 35% 0in /  0.0mm
18:54 57 °F /  13.9 °C 29.7 °F /  -1.3 °C 29.9in /  1013.5hPa Oeste 10mph /  16.1km/h 17mph /  27.4km/h 35% 0in /  0.0mm
18:59 57 °F /  13.9 °C 29.7 °F /  -1.3 °C 29.9in /  1013.5hPa Oeste 9.7mph /  15.6km/h 16mph /  25.7km/h 35.2% 0in /  0.0mm
19:04 56.8 °F /  13.8 °C 30 °F /  -1.1 °C 29.9in /  1013.5hPa Oeste 8.6mph /  13.8km/h 16.1mph /  25.9km/h 36% 0in /  0.0mm
19:09 56.7 °F /  13.7 °C 30.7 °F /  -0.7 °C 29.9in /  1013.7hPa Oeste 8.1mph /  13km/h 16mph /  25.7km/h 37% 0in /  0.0mm
19:14 56.5 °F /  13.6 °C 30.6 °F /  -0.8 °C 29.9in /  1013.7hPa Oeste 8.4mph /  13.5km/h 18.4mph /  29.6km/h 37.1% 0in /  0.0mm
19:19 56.5 °F /  13.6 °C 31.3 °F /  -0.4 °C 29.9in /  1013.7hPa Oeste 8.5mph /  13.7km/h 18mph /  29km/h 38% 0in /  0.0mm
19:24 56.3 °F /  13.5 °C 30.9 °F /  -0.6 °C 29.9in /  1014.0hPa Oeste 8.5mph /  13.7km/h 15mph /  24.1km/h 38% 0in /  0.0mm
19:29 55.9 °F /  13.3 °C 31.3 °F /  -0.4 °C 29.9in /  1014.0hPa Oeste 8.5mph /  13.7km/h 9.7mph /  15.6km/h 38.8% 0in /  0.0mm
19:34 55.8 °F /  13.2 °C 31.1 °F /  -0.5 °C 29.9in /  1014.0hPa OSO 6.3mph /  10.2km/h 10mph /  16.1km/h 39% 0in /  0.0mm
19:39 55.4 °F /  13 °C 30.9 °F /  -0.6 °C 29.9in /  1014.1hPa OSO 5.2mph /  8.4km/h 8.1mph /  13km/h 39% 0in /  0.0mm
19:44 55.2 °F /  12.9 °C 30.7 °F /  -0.7 °C 29.9in /  1014.1hPa Oeste 4.4mph /  7.1km/h 9.2mph /  14.8km/h 39% 0in /  0.0mm
19:49 55.2 °F /  12.9 °C 30.7 °F /  -0.7 °C 29.9in /  1014.1hPa Oeste 4mph /  6.5km/h 10.4mph /  16.7km/h 39% 0in /  0.0mm
19:54 55.2 °F /  12.9 °C 30.7 °F /  -0.7 °C 30in /  1014.3hPa Oeste 4.9mph /  7.9km/h 10mph /  16.1km/h 39% 0in /  0.0mm
19:59 55 °F /  12.8 °C 30.6 °F /  -0.8 °C 30in /  1014.3hPa OSO 5.4mph /  8.7km/h 13.8mph /  22.2km/h 39% 0in /  0.0mm
20:04 55.2 °F /  12.9 °C 30.9 °F /  -0.6 °C 30in /  1014.3hPa Oeste 5.3mph /  8.5km/h 14mph /  22.5km/h 39.5% 0in /  0.0mm
20:09 54.9 °F /  12.7 °C 31.1 °F /  -0.5 °C 30in /  1014.5hPa Oeste 5.2mph /  8.4km/h 10mph /  16.1km/h 40.2% 0in /  0.0mm
20:14 54.5 °F /  12.5 °C 31.3 °F /  -0.4 °C 30in /  1014.5hPa Oeste 5.7mph /  9.1km/h 10mph /  16.1km/h 41% 0in /  0.0mm
20:19 54.3 °F /  12.4 °C 31.3 °F /  -0.4 °C 30in /  1014.5hPa Oeste 5.9mph /  9.5km/h 10mph /  16.1km/h 41.2% 0in /  0.0mm
20:24 54.3 °F /  12.4 °C 31.6 °F /  -0.2 °C 30in /  1014.6hPa Oeste 5.5mph /  8.8km/h 9mph /  14.5km/h 42% 0in /  0.0mm
20:29 54.1 °F /  12.3 °C 31.6 °F /  -0.2 °C 30in /  1014.6hPa Oeste 5.2mph /  8.4km/h 8.1mph /  13km/h 42% 0in /  0.0mm
20:34 54.1 °F /  12.3 °C 31.5 °F /  -0.3 °C 30in /  1014.6hPa Oeste 5.2mph /  8.4km/h 10.7mph /  17.2km/h 42% 0in /  0.0mm
20:39 54.3 °F /  12.4 °C 31.6 °F /  -0.2 °C 30in /  1014.8hPa Oeste 5.2mph /  8.4km/h 15mph /  24.1km/h 42% 0in /  0.0mm
20:44 54.3 °F /  12.4 °C 31.6 °F /  -0.2 °C 30in /  1014.8hPa Oeste 5.3mph /  8.6km/h 15mph /  24.1km/h 42% 0in /  0.0mm
20:49 54.1 °F /  12.3 °C 31.5 °F /  -0.3 °C 30in /  1014.8hPa Oeste 5.4mph /  8.7km/h 8.1mph /  13km/h 42% 0in /  0.0mm
20:54 54.1 °F /  12.3 °C 31.5 °F /  -0.3 °C 30in /  1014.8hPa Oeste 5.3mph /  8.5km/h 8.1mph /  13km/h 42% 0in /  0.0mm
20:59 54.3 °F /  12.4 °C 31.6 °F /  -0.2 °C 30in /  1014.8hPa OSO 5.2mph /  8.4km/h 8mph /  12.9km/h 42% 0in /  0.0mm
21:04 54.3 °F /  12.4 °C 31.6 °F /  -0.2 °C 30in /  1014.8hPa Oeste 4.4mph /  7.1km/h 9.7mph /  15.6km/h 42% 0in /  0.0mm
21:09 54.3 °F /  12.4 °C 31.6 °F /  -0.2 °C 30in /  1014.8hPa Oeste 4mph /  6.5km/h 10mph /  16.1km/h 42% 0in /  0.0mm
21:14 54.3 °F /  12.4 °C 31.6 °F /  -0.2 °C 30in /  1014.7hPa OSO 4.8mph /  7.7km/h 10mph /  16.1km/h 42.1% 0in /  0.0mm
21:19 54.1 °F /  12.3 °C 32 °F /  0 °C 30in /  1014.7hPa OSO 5.2mph /  8.4km/h 9.7mph /  15.6km/h 42.9% 0in /  0.0mm
21:24 54 °F /  12.2 °C 31.6 °F /  -0.2 °C 30in /  1014.8hPa OSO 5.2mph /  8.4km/h 10mph /  16.1km/h 42.3% 0in /  0.0mm
21:29 54 °F /  12.2 °C 31.5 °F /  -0.3 °C 30in /  1014.8hPa SO 5.2mph /  8.4km/h 9.2mph /  14.8km/h 42% 0in /  0.0mm
21:34 54 °F /  12.2 °C 31.6 °F /  -0.2 °C 30in /  1014.8hPa Oeste 4.8mph /  7.8km/h 9mph /  14.5km/h 42.5% 0in /  0.0mm
21:39 54 °F /  12.2 °C 31.8 °F /  -0.1 °C 30in /  1014.9hPa Oeste 4.7mph /  7.6km/h 10.4mph /  16.7km/h 43% 0in /  0.0mm
21:44 54 °F /  12.2 °C 31.8 °F /  -0.1 °C 30in /  1014.9hPa OSO 4.7mph /  7.6km/h 10mph /  16.1km/h 42.7% 0in /  0.0mm
21:49 54.1 °F /  12.3 °C 32 °F /  0 °C 30in /  1014.9hPa OSO 4.7mph /  7.6km/h 10.7mph /  17.2km/h 42.9% 0in /  0.0mm
21:54 54.1 °F /  12.3 °C 32 °F /  0 °C 30in /  1015.0hPa OSO 5.2mph /  8.3km/h 11mph /  17.7km/h 43% 0in /  0.0mm
21:59 54 °F /  12.2 °C 32 °F /  0 °C 30in /  1015.0hPa OSO 5.4mph /  8.7km/h 10.4mph /  16.7km/h 43% 0in /  0.0mm
22:04 54 °F /  12.2 °C 32 °F /  0 °C 30in /  1015.0hPa OSO 5.3mph /  8.5km/h 10mph /  16.1km/h 43% 0in /  0.0mm
22:09 53.8 °F /  12.1 °C 31.8 °F /  -0.1 °C 30in /  1015.0hPa OSO 5.2mph /  8.4km/h 9mph /  14.5km/h 43% 0in /  0.0mm
22:14 53.6 °F /  12 °C 31.6 °F /  -0.2 °C 30in /  1014.9hPa OSO 4.2mph /  6.7km/h 7mph /  11.3km/h 43.2% 0in /  0.0mm
22:19 53.4 °F /  11.9 °C 32 °F /  0 °C 30in /  1014.9hPa SSO 3.6mph /  5.8km/h 6mph /  9.7km/h 44% 0in /  0.0mm
22:24 53.2 °F /  11.8 °C 32 °F /  0 °C 30in /  1015.0hPa Sur 2.9mph /  4.6km/h 5mph /  8km/h 44.3% 0in /  0.0mm
22:29 52.9 °F /  11.6 °C 32.2 °F /  0.1 °C 30in /  1015.0hPa SSE 2.4mph /  3.9km/h 5mph /  8km/h 45% 0in /  0.0mm
22:34 52.3 °F /  11.3 °C 32.2 °F /  0.1 °C 30in /  1015.0hPa SSE 2.4mph /  3.9km/h 5mph /  8km/h 46% 0in /  0.0mm
22:39 52 °F /  11.1 °C 32.2 °F /  0.1 °C 30in /  1015.2hPa SSE 2.4mph /  3.9km/h 5.4mph /  8.7km/h 46.7% 0in /  0.0mm
22:44 51.4 °F /  10.8 °C 31.8 °F /  -0.1 °C 30in /  1015.2hPa SSO 3.2mph /  5.1km/h 9.2mph /  14.8km/h 46.9% 0in /  0.0mm
22:49 51.8 °F /  11 °C 31.6 °F /  -0.2 °C 30in /  1015.2hPa SO 3.6mph /  5.8km/h 9.2mph /  14.8km/h 45.8% 0in /  0.0mm
22:54 52.3 °F /  11.3 °C 31.1 °F /  -0.5 °C 30in /  1015.3hPa SSO 5.1mph /  8.2km/h 11.5mph /  18.5km/h 44.4% 0in /  0.0mm
22:59 52.5 °F /  11.4 °C 31.3 °F /  -0.4 °C 30in /  1015.3hPa Sur 5.9mph /  9.5km/h 12mph /  19.3km/h 44% 0in /  0.0mm
23:04 52.5 °F /  11.4 °C 30.7 °F /  -0.7 °C 30in /  1015.3hPa Sur 6.2mph /  10km/h 9mph /  14.5km/h 43.4% 0in /  0.0mm
23:09 52.5 °F /  11.4 °C 30.6 °F /  -0.8 °C 30in /  1015.3hPa SSO 6.4mph /  10.3km/h 9mph /  14.5km/h 43% 0in /  0.0mm
23:14 52.5 °F /  11.4 °C 30.4 °F /  -0.9 °C 30in /  1015.3hPa SSO 5.3mph /  8.5km/h 12.3mph /  19.8km/h 42.5% 0in /  0.0mm
23:19 53.1 °F /  11.7 °C 30 °F /  -1.1 °C 30in /  1015.3hPa SO 4.7mph /  7.6km/h 13.8mph /  22.2km/h 41.3% 0in /  0.0mm
23:24 53.2 °F /  11.8 °C 30 °F /  -1.1 °C 30in /  1015.3hPa SO 5.8mph /  9.4km/h 14mph /  22.5km/h 40.6% 0in /  0.0mm
23:29 53.4 °F /  11.9 °C 29.7 °F /  -1.3 °C 30in /  1015.1hPa SO 6.4mph /  10.3km/h 14mph /  22.5km/h 40% 0in /  0.0mm
23:34 53.6 °F /  12 °C 29.8 °F /  -1.2 °C 30in /  1015.1hPa SO 6.7mph /  10.8km/h 14mph /  22.5km/h 40% 0in /  0.0mm
23:39 53.6 °F /  12 °C 29.5 °F /  -1.4 °C 30in /  1015.1hPa SO 6.9mph /  11.1km/h 15mph /  24.1km/h 39.5% 0in /  0.0mm
23:44 53.4 °F /  11.9 °C 29.1 °F /  -1.6 °C 30in /  1015.1hPa OSO 7.7mph /  12.4km/h 15mph /  24.1km/h 39.1% 0in /  0.0mm
23:49 53.2 °F /  11.8 °C 29.5 °F /  -1.4 °C 30in /  1015.1hPa OSO 8.1mph /  13km/h 14.5mph /  23.3km/h 39.9% 0in /  0.0mm
23:54 53.2 °F /  11.8 °C 29.5 °F /  -1.4 °C 30in /  1015.1hPa OSO 8.1mph /  13km/h 15mph /  24.1km/h 40% 0in /  0.0mm
23:59 53.1 °F /  11.7 °C 29.5 °F /  -1.4 °C 30in /  1015.0hPa OSO 8.1mph /  13km/h 15mph /  24.1km/h 40% 0in /  0.0mm
Murcia-Puente Tocinos, España
Compliments of Weather Underground - 3 mb

La estación de MeteoMurcia.com, publica sus datos en los siguientes proyectos:

Weather Underground PWS IMURCIAP2 Meteoclimatic www.awekas.at

W3Counter
Web Analytics